Latest Coastal Weather Observations for Browse Island

IDD60701

Issued at 10:51 am CST Saturday 5 September 2015 (issued every 10 minutes, with the page automatically refreshed every 10 minutes)

About coastal observations | Map of coastal stations | Coastal observations for NT | Marine services | Other Formats
Station Details ID: 200784 Name: BROWSE ISLAND Lat: -14.11 Lon: 123.55 Height: 3.7 m
Data from the previous 72 hours. | See also: Recent months at Browse Island
Date/Time
CST
Temp

°C
Wind Pressure Rain
since 9am
mm
Weather Cloud Vis
km
Sea
Height
m
Swell
Dir
 
Speed
knots
Gust
knots
hPa Trend Height
m
Period
s
Dir
05/10:30am 26.3 SSW 11 12 1017.3 - - - - - - - - -
05/10:00am 26.0 SSW 12 13 1017.1 - - - - - - - - -
05/09:30am 26.0 SSW 11 13 1017.0 - - - - - - - - -
05/09:00am 25.9 SSW 11 13 1016.8 - - - - - - - - -
05/08:30am 25.8 SW 11 12 1016.5 - - - - - - - - -
05/08:00am 25.7 SW 10 11 1016.3 - - - - - - - - -
05/07:30am 25.7 SW 9 10 1016.0 - - - - - - - - -
05/07:00am 25.5 SW 9 10 1015.7 - - - - - - - - -
05/06:30am 25.8 SW 7 8 1015.3 - - - - - - - - -
05/06:00am 25.6 SW 6 7 1015.1 - - - - - - - - -
05/05:30am 25.7 SW 6 6 1014.9 - - - - - - - - -
05/05:00am 25.6 WSW 4 5 1015.0 - - - - - - - - -
05/04:30am 25.6 SW 4 5 1014.9 - - - - - - - - -
05/04:00am 25.7 SSW 3 4 1015.0 - - - - - - - - -
05/03:30am 25.8 S 4 4 1015.2 - - - - - - - - -
05/03:00am 25.8 S 4 5 1015.3 - - - - - - - - -
05/02:30am 25.8 SSW 5 7 1015.4 - - - - - - - - -
05/02:00am 25.8 SSW 6 7 1015.4 - - - - - - - - -
05/01:30am 25.9 SSW 5 6 1015.7 - - - - - - - - -
05/01:00am 26.0 SSW 4 5 1016.0 - - - - - - - - -
05/12:30am 25.9 SW 4 5 1016.2 - - - - - - - - -
05/12:00am 25.9 SW 4 5 1016.4 - - - - - - - - -
 
Date/Time
CST
Temp

°C
Wind Pressure Rain
since 9am
mm
Weather Cloud Vis
km
Sea
Height
m
Swell
Dir
 
Speed
knots
Gust
knots
hPa Trend Height
m
Period
s
Dir
04/11:30pm 26.0 SW 4 5 1016.2 - - - - - - - - -
04/11:00pm 26.0 SW 6 7 1016.1 - - - - - - - - -
04/10:30pm 26.2 SW 8 9 1016.0 - - - - - - - - -
04/10:00pm 26.2 WSW 10 11 1015.7 - - - - - - - - -
04/09:30pm 26.4 WSW 11 13 1015.4 - - - - - - - - -
04/09:00pm 26.5 WSW 11 11 1015.3 - - - - - - - - -
04/08:30pm 26.6 SW 10 13 1015.2 - - - - - - - - -
04/08:00pm 26.6 SW 11 12 1015.0 - - - - - - - - -
04/07:30pm 26.6 SW 12 13 1014.7 - - - - - - - - -
04/07:00pm 26.6 SW 11 12 1014.6 - - - - - - - - -
04/06:30pm 26.8 SW 10 11 1014.4 - - - - - - - - -
04/06:00pm 26.9 SW 9 10 1014.3 - - - - - - - - -
04/05:30pm 26.9 SW 8 9 1014.2 - - - - - - - - -
04/05:00pm 27.1 SSW 8 9 1014.1 - - - - - - - - -
04/04:30pm 27.1 SSW 8 9 1014.0 - - - - - - - - -
04/04:00pm 27.4 SSW 8 9 1014.2 - - - - - - - - -
04/03:30pm 27.6 S 6 8 1014.3 - - - - - - - - -
04/03:00pm 27.5 S 7 8 1014.3 - - - - - - - - -
04/02:30pm 27.0 S 7 9 1014.5 - - - - - - - - -
04/02:00pm 26.8 S 8 9 1014.8 - - - - - - - - -
04/01:30pm 27.0 S 9 10 1015.2 - - - - - - - - -
04/01:00pm 27.0 S 10 11 1015.5 - - - - - - - - -
04/12:30pm 26.9 S 11 13 1015.9 - - - - - - - - -
04/12:00pm 26.6 S 12 14 1016.1 - - - - - - - - -
04/11:30am 26.5 S 15 17 1016.4 - - - - - - - - -
04/11:00am 26.5 S 16 19 1016.5 - - - - - - - - -
04/10:30am 26.4 S 16 19 1016.4 - - - - - - - - -
04/10:00am 26.3 S 18 21 1016.3 - - - - - - - - -
04/09:30am 26.1 S 19 21 1016.1 - - - - - - - - -
04/09:00am 25.6 S 19 22 1015.8 - - - - - - - - -
04/08:30am 25.5 S 18 21 1015.8 - - - - - - - - -
04/08:00am 25.8 S 17 19 1015.8 - - - - - - - - -
04/07:30am 25.8 S 15 17 1015.7 - - - - - - - - -
04/07:00am 25.6 SSW 15 17 1015.4 - - - - - - - - -
04/06:30am 25.5 SSW 13 14 1015.3 - - - - - - - - -
04/06:00am 25.5 SSW 12 14 1015.1 - - - - - - - - -
04/05:30am 25.7 SSW 11 13 1015.0 - - - - - - - - -
04/05:00am 25.7 SSW 11 13 1014.9 - - - - - - - - -
04/04:30am 25.7 SSW 10 11 1015.1 - - - - - - - - -
04/04:00am 25.7 SW 9 11 1015.3 - - - - - - - - -
04/03:30am 25.6 SW 9 11 1015.3 - - - - - - - - -
04/03:00am 25.7 SW 9 11 1015.5 - - - - - - - - -
04/02:30am 25.4 SW 9 10 1015.7 - - - - - - - - -
04/02:00am 25.4 SW 9 11 1016.0 - - - - - - - - -
04/01:30am 25.4 SW 11 13 1016.1 - - - - - - - - -
04/01:00am 25.4 SSW 11 13 1016.3 - - - - - - - - -
04/12:30am 25.3 SW 11 13 1016.5 - - - - - - - - -
04/12:00am 25.3 SW 13 15 1016.5 - - - - - - - - -
 
Date/Time
CST
Temp

°C
Wind Pressure Rain
since 9am
mm
Weather Cloud Vis
km
Sea
Height
m
Swell
Dir
 
Speed
knots
Gust
knots
hPa Trend Height
m
Period
s
Dir
03/11:30pm 25.3 SW 13 14 1016.7 - - - - - - - - -
03/11:00pm 25.2 SW 13 14 1016.6 - - - - - - - - -
03/10:30pm 25.3 SW 14 16 1016.4 - - - - - - - - -
03/10:00pm 25.2 SW 14 16 1016.4 - - - - - - - - -
03/09:30pm 25.4 SW 15 17 1016.2 - - - - - - - - -
03/09:00pm 25.2 SW 15 17 1015.9 - - - - - - - - -
03/08:30pm 25.1 SW 13 16 1015.5 - - - - - - - - -
03/08:00pm 25.5 SW 13 15 1015.3 - - - - - - - - -
03/07:30pm 25.2 SW 12 14 1015.2 - - - - - - - - -
03/07:00pm 25.2 SW 11 13 1014.9 - - - - - - - - -
03/06:30pm 25.2 SW 11 13 1014.5 - - - - - - - - -
03/06:00pm 25.6 SW 12 14 1014.4 - - - - - - - - -
03/05:30pm 25.5 SW 11 13 1014.4 - - - - - - - - -
03/05:00pm 25.2 SSW 12 15 1014.4 - - - - - - - - -
03/04:30pm 25.4 SSW 11 14 1014.7 - - - - - - - - -
03/04:00pm 25.3 SSW 13 15 1014.6 - - - - - - - - -
03/03:30pm 25.4 SSW 14 17 1014.7 - - - - - - - - -
03/03:00pm 25.3 SSW 14 16 1014.8 - - - - - - - - -
03/02:30pm 25.4 SSW 13 15 1015.3 - - - - - - - - -
03/02:00pm 25.3 SSW 11 13 1015.7 - - - - - - - - -
03/01:30pm 25.4 SSW 11 13 1016.0 - - - - - - - - -
03/01:00pm 25.2 SSW 11 13 1016.3 - - - - - - - - -
03/12:30pm 25.2 SSW 12 14 1016.6 - - - - - - - - -
03/12:00pm 25.3 SSW 13 16 1016.8 - - - - - - - - -
03/11:30am 25.3 SSW 12 14 1017.3 - - - - - - - - -
03/11:00am 25.4 SSW 10 13 1017.7 - - - - - - - - -
03/10:30am 25.2 S 11 13 1017.5 - - - - - - - - -
03/10:00am 24.9 S 11 13 1017.0 - - - - - - - - -
03/09:30am 24.8 S 11 12 1016.8 - - - - - - - - -
03/09:00am 24.8 S 10 13 1016.6 - - - - - - - - -
03/08:30am 24.7 S 10 13 1016.6 - - - - - - - - -
03/08:00am 24.7 S 11 13 1016.4 - - - - - - - - -
03/07:30am 24.6 S 11 13 1016.2 - - - - - - - - -
03/07:00am 24.6 S 10 12 1015.8 - - - - - - - - -
03/06:30am 24.5 S 11 12 1015.3 - - - - - - - - -
03/06:00am 24.8 S 11 13 1015.0 - - - - - - - - -
03/05:30am 24.6 S 11 14 1015.0 - - - - - - - - -
03/05:00am 24.6 S 10 12 1015.0 - - - - - - - - -
03/04:30am 24.8 SSW 11 13 1014.9 - - - - - - - - -
03/04:00am 24.8 SSW 14 16 1014.6 - - - - - - - - -
03/03:30am 24.7 SSW 13 16 1014.7 - - - - - - - - -
03/03:00am 24.9 SSW 14 16 1015.1 - - - - - - - - -
03/02:30am 24.9 SSW 13 15 1015.4 - - - - - - - - -
03/02:00am 24.8 SSW 12 14 1015.8 - - - - - - - - -
03/01:30am 24.9 SSW 11 13 1016.2 - - - - - - - - -
03/01:00am 25.0 SSW 11 13 1016.5 - - - - - - - - -
03/12:30am 25.1 SW 11 13 1016.7 - - - - - - - - -
03/12:00am 25.1 SW 11 13 1016.7 - - - - - - - - -
 
Date/Time
CST
Temp

°C
Wind Pressure Rain
since 9am
mm
Weather Cloud Vis
km
Sea
Height
m
Swell
Dir
 
Speed
knots
Gust
knots
hPa Trend Height
m
Period
s
Dir
02/11:30pm 25.1 SW 12 14 1016.8 - - - - - - - - -
02/11:00pm 25.1 SSW 11 14 1016.6 - - - - - - - - -
02/10:30pm 25.0 SW 11 14 1016.5 - - - - - - - - -
02/10:00pm 25.3 SW 11 14 1016.3 - - - - - - - - -
02/09:30pm 25.1 SW 11 14 1016.0 - - - - - - - - -
02/09:00pm 25.1 SW 11 13 1015.6 - - - - - - - - -
02/08:30pm 25.3 SW 11 13 1015.4 - - - - - - - - -
02/08:00pm 25.3 SW 11 14 1015.0 - - - - - - - - -
02/07:30pm 25.3 SW 13 15 1014.7 - - - - - - - - -
02/07:00pm 25.6 SW 14 17 1014.3 - - - - - - - - -
02/06:30pm 25.6 SSW 13 15 1014.3 - - - - - - - - -
02/06:00pm 25.7 SW 13 16 1014.0 - - - - - - - - -
02/05:30pm 25.7 SW 12 14 1013.9 - - - - - - - - -
02/05:00pm 25.8 SW 12 14 1013.8 - - - - - - - - -
02/04:30pm 25.8 SW 11 13 1013.8 - - - - - - - - -
02/04:00pm 25.7 SW 12 13 1013.8 - - - - - - - - -
02/03:30pm 25.7 SSW 12 14 1013.9 - - - - - - - - -
02/03:00pm 25.6 SW 11 14 1014.1 - - - - - - - - -
02/02:30pm 25.6 SW 11 12 1014.4 - - - - - - - - -
02/02:00pm 25.5 SW 9 11 1014.7 - - - - - - - - -
02/01:30pm 25.6 SW 9 10 1015.1 - - - - - - - - -
02/01:00pm 25.4 SSW 9 11 1015.6 - - - - - - - - -
02/12:30pm 25.4 SSW 9 10 1016.1 - - - - - - - - -

Other Formats:

Comma delimited format used in spreadsheet applications
http://www.bom.gov.au/fwo/IDD60701/IDD60701.94103.axf

JavaScript Object Notation format (JSON) in row-major order
http://www.bom.gov.au/fwo/IDD60701/IDD60701.94103.json